sensor_id;sensor_type;location;lat;lon;timestamp;temperature;humidity
76099;DHT22;64828;49.956;8.636;2023-04-01T00:00:00;10.10;76.50
76099;DHT22;64828;49.956;8.636;2023-04-01T00:00:16;10.10;76.30
76099;DHT22;64828;49.956;8.636;2023-04-01T00:00:32;10.00;76.50
76099;DHT22;64828;49.956;8.636;2023-04-01T00:00:48;10.00;76.80
76099;DHT22;64828;49.956;8.636;2023-04-01T00:01:05;10.00;76.60
76099;DHT22;64828;49.956;8.636;2023-04-01T00:01:21;10.00;76.90
76099;DHT22;64828;49.956;8.636;2023-04-01T00:01:36;10.00;76.70
76099;DHT22;64828;49.956;8.636;2023-04-01T00:01:52;10.00;76.80
76099;DHT22;64828;49.956;8.636;2023-04-01T00:02:07;10.00;76.80
76099;DHT22;64828;49.956;8.636;2023-04-01T00:02:23;10.00;76.70
76099;DHT22;64828;49.956;8.636;2023-04-01T00:02:39;10.00;76.70
76099;DHT22;64828;49.956;8.636;2023-04-01T00:02:55;10.00;76.70
76099;DHT22;64828;49.956;8.636;2023-04-01T00:03:11;10.00;76.60
76099;DHT22;64828;49.956;8.636;2023-04-01T00:03:27;10.00;76.90
76099;DHT22;64828;49.956;8.636;2023-04-01T00:03:44;10.00;76.80
76099;DHT22;64828;49.956;8.636;2023-04-01T00:04:00;10.10;76.70
76099;DHT22;64828;49.956;8.636;2023-04-01T00:04:17;10.10;76.70
76099;DHT22;64828;49.956;8.636;2023-04-01T00:04:32;10.00;76.70
76099;DHT22;64828;49.956;8.636;2023-04-01T00:04:48;10.00;76.60
76099;DHT22;64828;49.956;8.636;2023-04-01T00:05:05;10.00;76.70
76099;DHT22;64828;49.956;8.636;2023-04-01T00:05:21;10.00;76.60
76099;DHT22;64828;49.956;8.636;2023-04-01T00:05:37;10.00;76.60
76099;DHT22;64828;49.956;8.636;2023-04-01T00:05:53;10.10;76.60
76099;DHT22;64828;49.956;8.636;2023-04-01T00:06:13;10.00;77.00
76099;DHT22;64828;49.956;8.636;2023-04-01T00:06:30;10.00;76.90
76099;DHT22;64828;49.956;8.636;2023-04-01T00:06:46;10.00;76.70
76099;DHT22;64828;49.956;8.636;2023-04-01T00:07:02;10.00;76.80
76099;DHT22;64828;49.956;8.636;2023-04-01T00:07:18;10.00;76.50
76099;DHT22;64828;49.956;8.636;2023-04-01T00:07:33;10.10;76.50
76099;DHT22;64828;49.956;8.636;2023-04-01T00:07:49;10.00;76.50
76099;DHT22;64828;49.956;8.636;2023-04-01T00:08:05;10.10;76.40
76099;DHT22;64828;49.956;8.636;2023-04-01T00:08:21;10.10;76.30
76099;DHT22;64828;49.956;8.636;2023-04-01T00:08:37;10.10;76.40
76099;DHT22;64828;49.956;8.636;2023-04-01T00:08:53;10.10;76.50
76099;DHT22;64828;49.956;8.636;2023-04-01T00:09:08;10.10;76.50
76099;DHT22;64828;49.956;8.636;2023-04-01T00:09:24;10.10;76.40
76099;DHT22;64828;49.956;8.636;2023-04-01T00:09:39;10.10;76.40
76099;DHT22;64828;49.956;8.636;2023-04-01T00:09:55;10.10;76.30
76099;DHT22;64828;49.956;8.636;2023-04-01T00:10:12;10.10;76.30
76099;DHT22;64828;49.956;8.636;2023-04-01T00:10:28;10.10;76.30
76099;DHT22;64828;49.956;8.636;2023-04-01T00:10:44;10.10;76.40
76099;DHT22;64828;49.956;8.636;2023-04-01T00:11:00;10.10;76.40
76099;DHT22;64828;49.956;8.636;2023-04-01T00:11:16;10.10;76.60
76099;DHT22;64828;49.956;8.636;2023-04-01T00:11:33;10.10;76.50
76099;DHT22;64828;49.956;8.636;2023-04-01T00:11:48;10.10;76.40
76099;DHT22;64828;49.956;8.636;2023-04-01T00:12:04;10.10;76.40
76099;DHT22;64828;49.956;8.636;2023-04-01T00:12:20;10.00;76.50
76099;DHT22;64828;49.956;8.636;2023-04-01T00:12:36;10.10;76.20
76099;DHT22;64828;49.956;8.636;2023-04-01T00:12:52;10.10;76.10
76099;DHT22;64828;49.956;8.636;2023-04-01T00:13:08;10.10;76.00
76099;DHT22;64828;49.956;8.636;2023-04-01T00:13:25;10.10;76.10
76099;DHT22;64828;49.956;8.636;2023-04-01T00:13:41;10.10;76.30
76099;DHT22;64828;49.956;8.636;2023-04-01T00:13:57;10.10;76.40
76099;DHT22;64828;49.956;8.636;2023-04-01T00:14:13;10.10;76.30
76099;DHT22;64828;49.956;8.636;2023-04-01T00:14:29;10.00;76.40
76099;DHT22;64828;49.956;8.636;2023-04-01T00:14:45;10.00;76.40
76099;DHT22;64828;49.956;8.636;2023-04-01T00:15:01;10.10;76.40
76099;DHT22;64828;49.956;8.636;2023-04-01T00:15:18;10.00;76.40
76099;DHT22;64828;49.956;8.636;2023-04-01T00:15:34;10.10;76.20
76099;DHT22;64828;49.956;8.636;2023-04-01T00:15:51;10.10;76.20
76099;DHT22;64828;49.956;8.636;2023-04-01T00:16:07;10.10;76.20
76099;DHT22;64828;49.956;8.636;2023-04-01T00:16:24;10.10;76.30
76099;DHT22;64828;49.956;8.636;2023-04-01T00:16:39;10.10;76.30
76099;DHT22;64828;49.956;8.636;2023-04-01T00:16:55;10.10;76.20
76099;DHT22;64828;49.956;8.636;2023-04-01T00:17:11;10.10;76.40
76099;DHT22;64828;49.956;8.636;2023-04-01T00:17:27;10.00;76.40
76099;DHT22;64828;49.956;8.636;2023-04-01T00:17:43;10.00;76.60
76099;DHT22;64828;49.956;8.636;2023-04-01T00:17:59;10.00;76.70
76099;DHT22;64828;49.956;8.636;2023-04-01T00:18:15;10.00;76.80
76099;DHT22;64828;49.956;8.636;2023-04-01T00:18:30;10.10;76.60
76099;DHT22;64828;49.956;8.636;2023-04-01T00:18:47;10.00;76.70
76099;DHT22;64828;49.956;8.636;2023-04-01T00:19:02;10.00;76.70
76099;DHT22;64828;49.956;8.636;2023-04-01T00:19:18;10.00;76.90
76099;DHT22;64828;49.956;8.636;2023-04-01T00:19:34;10.00;76.70
76099;DHT22;64828;49.956;8.636;2023-04-01T00:19:49;10.00;76.70
76099;DHT22;64828;49.956;8.636;2023-04-01T00:20:06;10.00;76.90
76099;DHT22;64828;49.956;8.636;2023-04-01T00:20:24;10.10;76.40
76099;DHT22;64828;49.956;8.636;2023-04-01T00:20:47;10.10;76.40
76099;DHT22;64828;49.956;8.636;2023-04-01T00:21:04;10.00;76.60
76099;DHT22;64828;49.956;8.636;2023-04-01T00:21:20;10.00;76.50
76099;DHT22;64828;49.956;8.636;2023-04-01T00:21:37;10.00;76.70
76099;DHT22;64828;49.956;8.636;2023-04-01T00:21:52;10.00;76.30
76099;DHT22;64828;49.956;8.636;2023-04-01T00:22:08;10.10;76.30
76099;DHT22;64828;49.956;8.636;2023-04-01T00:22:26;10.10;76.20
76099;DHT22;64828;49.956;8.636;2023-04-01T00:22:42;10.00;76.20
76099;DHT22;64828;49.956;8.636;2023-04-01T00:22:58;10.10;76.10
76099;DHT22;64828;49.956;8.636;2023-04-01T00:23:14;10.10;76.30
76099;DHT22;64828;49.956;8.636;2023-04-01T00:23:31;10.00;76.30
76099;DHT22;64828;49.956;8.636;2023-04-01T00:23:47;10.00;76.50
76099;DHT22;64828;49.956;8.636;2023-04-01T00:24:03;10.00;76.50
76099;DHT22;64828;49.956;8.636;2023-04-01T00:24:19;10.00;76.40
76099;DHT22;64828;49.956;8.636;2023-04-01T00:24:34;10.00;76.40
76099;DHT22;64828;49.956;8.636;2023-04-01T00:24:50;10.10;76.40
76099;DHT22;64828;49.956;8.636;2023-04-01T00:25:06;10.00;76.10
76099;DHT22;64828;49.956;8.636;2023-04-01T00:25:23;10.00;76.10
76099;DHT22;64828;49.956;8.636;2023-04-01T00:25:39;10.10;75.90
76099;DHT22;64828;49.956;8.636;2023-04-01T00:25:54;10.10;75.90
76099;DHT22;64828;49.956;8.636;2023-04-01T00:26:10;10.10;76.20
76099;DHT22;64828;49.956;8.636;2023-04-01T00:26:27;10.00;76.10
76099;DHT22;64828;49.956;8.636;2023-04-01T00:26:42;10.00;76.30
76099;DHT22;64828;49.956;8.636;2023-04-01T00:26:59;10.00;76.20
76099;DHT22;64828;49.956;8.636;2023-04-01T00:27:16;10.10;76.00
76099;DHT22;64828;49.956;8.636;2023-04-01T00:27:32;10.10;76.00
76099;DHT22;64828;49.956;8.636;2023-04-01T00:27:47;10.00;76.10
76099;DHT22;64828;49.956;8.636;2023-04-01T00:28:04;10.10;76.10
76099;DHT22;64828;49.956;8.636;2023-04-01T00:28:20;10.10;76.20
76099;DHT22;64828;49.956;8.636;2023-04-01T00:28:36;10.10;76.10
76099;DHT22;64828;49.956;8.636;2023-04-01T00:28:52;10.00;76.20
76099;DHT22;64828;49.956;8.636;2023-04-01T00:29:08;10.10;75.90
76099;DHT22;64828;49.956;8.636;2023-04-01T00:29:23;10.00;76.10
76099;DHT22;64828;49.956;8.636;2023-04-01T00:29:44;10.10;76.00
76099;DHT22;64828;49.956;8.636;2023-04-01T00:30:01;10.10;75.90
76099;DHT22;64828;49.956;8.636;2023-04-01T00:30:18;10.10;75.90
76099;DHT22;64828;49.956;8.636;2023-04-01T00:30:35;10.10;75.90
76099;DHT22;64828;49.956;8.636;2023-04-01T00:30:52;10.10;76.10
76099;DHT22;64828;49.956;8.636;2023-04-01T00:31:09;10.10;75.70
76099;DHT22;64828;49.956;8.636;2023-04-01T00:31:26;10.10;75.50
76099;DHT22;64828;49.956;8.636;2023-04-01T00:31:42;10.10;75.60
76099;DHT22;64828;49.956;8.636;2023-04-01T00:31:57;10.00;76.10
76099;DHT22;64828;49.956;8.636;2023-04-01T00:32:14;10.10;75.80
76099;DHT22;64828;49.956;8.636;2023-04-01T00:32:29;10.10;75.90
76099;DHT22;64828;49.956;8.636;2023-04-01T00:32:46;10.10;75.90
76099;DHT22;64828;49.956;8.636;2023-04-01T00:33:02;10.10;75.80
76099;DHT22;64828;49.956;8.636;2023-04-01T00:33:17;10.00;75.90
76099;DHT22;64828;49.956;8.636;2023-04-01T00:33:33;10.10;76.10
76099;DHT22;64828;49.956;8.636;2023-04-01T00:33:48;10.10;75.90
76099;DHT22;64828;49.956;8.636;2023-04-01T00:34:04;10.00;76.20
76099;DHT22;64828;49.956;8.636;2023-04-01T00:34:20;10.00;75.90
76099;DHT22;64828;49.956;8.636;2023-04-01T00:34:36;10.10;75.70
76099;DHT22;64828;49.956;8.636;2023-04-01T00:34:52;10.10;75.70
76099;DHT22;64828;49.956;8.636;2023-04-01T00:35:08;10.10;75.60
76099;DHT22;64828;49.956;8.636;2023-04-01T00:35:25;10.00;75.80
76099;DHT22;64828;49.956;8.636;2023-04-01T00:35:40;10.10;75.80
76099;DHT22;64828;49.956;8.636;2023-04-01T00:36:12;10.10;75.90
76099;DHT22;64828;49.956;8.636;2023-04-01T00:36:30;10.00;75.70
76099;DHT22;64828;49.956;8.636;2023-04-01T00:36:45;10.10;75.90
76099;DHT22;64828;49.956;8.636;2023-04-01T00:37:01;10.10;75.80
76099;DHT22;64828;49.956;8.636;2023-04-01T00:37:17;10.10;75.90
76099;DHT22;64828;49.956;8.636;2023-04-01T00:37:35;10.00;75.80
76099;DHT22;64828;49.956;8.636;2023-04-01T00:37:52;10.00;76.00
76099;DHT22;64828;49.956;8.636;2023-04-01T00:38:07;10.00;76.30
76099;DHT22;64828;49.956;8.636;2023-04-01T00:38:23;10.00;76.10
76099;DHT22;64828;49.956;8.636;2023-04-01T00:38:39;10.00;76.20
76099;DHT22;64828;49.956;8.636;2023-04-01T00:38:57;10.00;76.10
76099;DHT22;64828;49.956;8.636;2023-04-01T00:39:14;10.00;76.00
76099;DHT22;64828;49.956;8.636;2023-04-01T00:39:31;10.00;75.90
76099;DHT22;64828;49.956;8.636;2023-04-01T00:39:47;10.00;75.70
76099;DHT22;64828;49.956;8.636;2023-04-01T00:40:05;10.00;75.60
76099;DHT22;64828;49.956;8.636;2023-04-01T00:40:28;10.00;75.90
76099;DHT22;64828;49.956;8.636;2023-04-01T00:40:46;10.00;75.90
76099;DHT22;64828;49.956;8.636;2023-04-01T00:41:02;10.00;75.80
76099;DHT22;64828;49.956;8.636;2023-04-01T00:41:20;10.00;75.70
76099;DHT22;64828;49.956;8.636;2023-04-01T00:41:36;10.00;75.70
76099;DHT22;64828;49.956;8.636;2023-04-01T00:41:51;10.10;75.80
76099;DHT22;64828;49.956;8.636;2023-04-01T00:42:09;10.10;75.60
76099;DHT22;64828;49.956;8.636;2023-04-01T00:42:26;10.00;75.70
76099;DHT22;64828;49.956;8.636;2023-04-01T00:42:41;10.00;75.70
76099;DHT22;64828;49.956;8.636;2023-04-01T00:42:57;10.00;75.80
76099;DHT22;64828;49.956;8.636;2023-04-01T00:43:16;10.10;75.70
76099;DHT22;64828;49.956;8.636;2023-04-01T00:43:34;10.00;75.70
76099;DHT22;64828;49.956;8.636;2023-04-01T00:43:51;10.00;75.70
76099;DHT22;64828;49.956;8.636;2023-04-01T00:44:22;10.00;75.60
76099;DHT22;64828;49.956;8.636;2023-04-01T00:44:38;10.00;75.70
76099;DHT22;64828;49.956;8.636;2023-04-01T00:44:55;10.00;75.90
76099;DHT22;64828;49.956;8.636;2023-04-01T00:45:35;10.00;76.10
76099;DHT22;64828;49.956;8.636;2023-04-01T00:45:53;10.00;76.00
76099;DHT22;64828;49.956;8.636;2023-04-01T00:46:09;10.00;76.00
76099;DHT22;64828;49.956;8.636;2023-04-01T00:46:24;10.00;75.90
76099;DHT22;64828;49.956;8.636;2023-04-01T00:46:40;10.00;76.00
76099;DHT22;64828;49.956;8.636;2023-04-01T00:46:56;10.00;76.00
76099;DHT22;64828;49.956;8.636;2023-04-01T00:47:11;10.00;76.00
76099;DHT22;64828;49.956;8.636;2023-04-01T00:47:27;10.00;75.80
76099;DHT22;64828;49.956;8.636;2023-04-01T00:47:43;10.00;75.60
76099;DHT22;64828;49.956;8.636;2023-04-01T00:48:02;10.00;75.70
76099;DHT22;64828;49.956;8.636;2023-04-01T00:48:52;10.00;75.70
76099;DHT22;64828;49.956;8.636;2023-04-01T00:49:10;10.00;76.00
76099;DHT22;64828;49.956;8.636;2023-04-01T00:49:40;10.00;76.20
76099;DHT22;64828;49.956;8.636;2023-04-01T00:49:59;9.90;76.30
76099;DHT22;64828;49.956;8.636;2023-04-01T00:50:15;9.90;76.30
76099;DHT22;64828;49.956;8.636;2023-04-01T00:50:31;9.90;76.20
76099;DHT22;64828;49.956;8.636;2023-04-01T00:51:03;9.90;76.20
76099;DHT22;64828;49.956;8.636;2023-04-01T00:51:23;10.00;75.70
76099;DHT22;64828;49.956;8.636;2023-04-01T00:51:43;10.00;75.90
76099;DHT22;64828;49.956;8.636;2023-04-01T00:52:04;10.00;75.90
76099;DHT22;64828;49.956;8.636;2023-04-01T00:52:24;9.90;76.10
76099;DHT22;64828;49.956;8.636;2023-04-01T00:52:41;9.90;76.00
76099;DHT22;64828;49.956;8.636;2023-04-01T00:52:58;10.00;75.80
76099;DHT22;64828;49.956;8.636;2023-04-01T00:53:18;10.00;76.00
76099;DHT22;64828;49.956;8.636;2023-04-01T00:53:39;10.00;75.90
76099;DHT22;64828;49.956;8.636;2023-04-01T00:53:59;10.00;75.60
76099;DHT22;64828;49.956;8.636;2023-04-01T00:54:19;10.00;75.50
76099;DHT22;64828;49.956;8.636;2023-04-01T00:54:38;10.00;75.60
76099;DHT22;64828;49.956;8.636;2023-04-01T00:55:00;10.00;75.40
76099;DHT22;64828;49.956;8.636;2023-04-01T00:55:20;10.10;75.30
76099;DHT22;64828;49.956;8.636;2023-04-01T00:55:42;10.00;75.20
76099;DHT22;64828;49.956;8.636;2023-04-01T00:56:07;10.10;75.10
76099;DHT22;64828;49.956;8.636;2023-04-01T00:56:38;10.10;75.40
76099;DHT22;64828;49.956;8.636;2023-04-01T00:57:11;10.10;75.30
76099;DHT22;64828;49.956;8.636;2023-04-01T00:57:34;10.00;75.10
76099;DHT22;64828;49.956;8.636;2023-04-01T00:57:53;10.10;75.30
76099;DHT22;64828;49.956;8.636;2023-04-01T00:58:15;10.10;75.20
76099;DHT22;64828;49.956;8.636;2023-04-01T00:58:36;10.10;75.10
76099;DHT22;64828;49.956;8.636;2023-04-01T00:59:01;10.00;75.10
76099;DHT22;64828;49.956;8.636;2023-04-01T00:59:29;10.10;75.10
76099;DHT22;64828;49.956;8.636;2023-04-01T00:59:51;10.00;75.80
76099;DHT22;64828;49.956;8.636;2023-04-01T01:00:11;10.00;75.50
76099;DHT22;64828;49.956;8.636;2023-04-01T01:00:30;10.00;75.40
76099;DHT22;64828;49.956;8.636;2023-04-01T01:00:48;10.00;75.20
76099;DHT22;64828;49.956;8.636;2023-04-01T01:01:06;10.10;75.00
76099;DHT22;64828;49.956;8.636;2023-04-01T01:01:24;10.10;75.00
76099;DHT22;64828;49.956;8.636;2023-04-01T01:01:41;10.10;75.00
76099;DHT22;64828;49.956;8.636;2023-04-01T01:01:57;10.10;75.10
76099;DHT22;64828;49.956;8.636;2023-04-01T01:02:15;10.10;75.10
76099;DHT22;64828;49.956;8.636;2023-04-01T01:02:32;10.10;75.30
76099;DHT22;64828;49.956;8.636;2023-04-01T01:02:50;10.10;75.30
76099;DHT22;64828;49.956;8.636;2023-04-01T01:03:06;10.10;75.20
76099;DHT22;64828;49.956;8.636;2023-04-01T01:03:22;10.10;75.10
76099;DHT22;64828;49.956;8.636;2023-04-01T01:03:38;10.10;75.10
76099;DHT22;64828;49.956;8.636;2023-04-01T01:03:53;10.10;75.10
76099;DHT22;64828;49.956;8.636;2023-04-01T01:04:26;10.10;75.00
76099;DHT22;64828;49.956;8.636;2023-04-01T01:04:46;10.10;75.30
76099;DHT22;64828;49.956;8.636;2023-04-01T01:05:02;10.10;75.20
76099;DHT22;64828;49.956;8.636;2023-04-01T01:05:23;10.00;75.20
76099;DHT22;64828;49.956;8.636;2023-04-01T01:06:11;10.00;75.20
76099;DHT22;64828;49.956;8.636;2023-04-01T01:07:14;10.10;75.10
76099;DHT22;64828;49.956;8.636;2023-04-01T01:07:45;10.10;75.10
76099;DHT22;64828;49.956;8.636;2023-04-01T01:08:20;10.00;75.30
76099;DHT22;64828;49.956;8.636;2023-04-01T01:09:31;10.10;75.30
76099;DHT22;64828;49.956;8.636;2023-04-01T01:10:53;10.10;75.30
76099;DHT22;64828;49.956;8.636;2023-04-01T01:11:10;10.00;75.00
76099;DHT22;64828;49.956;8.636;2023-04-01T01:11:43;10.10;75.00
76099;DHT22;64828;49.956;8.636;2023-04-01T01:12:11;10.10;75.00
76099;DHT22;64828;49.956;8.636;2023-04-01T01:12:57;10.10;75.10
76099;DHT22;64828;49.956;8.636;2023-04-01T01:13:34;10.10;75.00
76099;DHT22;64828;49.956;8.636;2023-04-01T01:14:03;10.10;74.80
76099;DHT22;64828;49.956;8.636;2023-04-01T01:16:12;10.00;75.20
76099;DHT22;64828;49.956;8.636;2023-04-01T01:16:42;10.10;75.20
76099;DHT22;64828;49.956;8.636;2023-04-01T01:17:32;10.10;75.10
76099;DHT22;64828;49.956;8.636;2023-04-01T01:18:54;10.00;75.50
76099;DHT22;64828;49.956;8.636;2023-04-01T01:19:48;10.00;75.30
76099;DHT22;64828;49.956;8.636;2023-04-01T01:22:44;10.10;75.20
76099;DHT22;64828;49.956;8.636;2023-04-01T01:24:42;10.10;75.10
76099;DHT22;64828;49.956;8.636;2023-04-01T01:27:20;10.10;75.10
76099;DHT22;64828;49.956;8.636;2023-04-01T01:27:40;10.10;75.10
76099;DHT22;64828;49.956;8.636;2023-04-01T01:30:46;10.10;75.10
76099;DHT22;64828;49.956;8.636;2023-04-01T01:32:00;10.10;75.40
76099;DHT22;64828;49.956;8.636;2023-04-01T01:33:32;10.00;75.30
76099;DHT22;64828;49.956;8.636;2023-04-01T01:35:40;10.10;75.50
76099;DHT22;64828;49.956;8.636;2023-04-01T01:36:06;10.00;75.40
76099;DHT22;64828;49.956;8.636;2023-04-01T01:36:31;10.00;75.40
76099;DHT22;64828;49.956;8.636;2023-04-01T01:36:55;10.00;75.40
76099;DHT22;64828;49.956;8.636;2023-04-01T01:37:17;10.00;75.50
76099;DHT22;64828;49.956;8.636;2023-04-01T01:37:37;10.10;75.10
76099;DHT22;64828;49.956;8.636;2023-04-01T01:38:04;10.00;75.10
76099;DHT22;64828;49.956;8.636;2023-04-01T01:38:28;10.00;75.30
76099;DHT22;64828;49.956;8.636;2023-04-01T01:38:50;10.00;75.50
76099;DHT22;64828;49.956;8.636;2023-04-01T01:39:07;10.00;75.60
76099;DHT22;64828;49.956;8.636;2023-04-01T01:39:28;10.00;75.50
76099;DHT22;64828;49.956;8.636;2023-04-01T01:39:51;10.00;75.70
76099;DHT22;64828;49.956;8.636;2023-04-01T01:40:12;10.00;75.60
76099;DHT22;64828;49.956;8.636;2023-04-01T01:40:32;10.00;75.60
76099;DHT22;64828;49.956;8.636;2023-04-01T01:40:50;10.00;75.50
76099;DHT22;64828;49.956;8.636;2023-04-01T01:41:09;10.00;75.60
76099;DHT22;64828;49.956;8.636;2023-04-01T01:41:30;10.00;75.50
76099;DHT22;64828;49.956;8.636;2023-04-01T01:41:48;10.00;75.50
76099;DHT22;64828;49.956;8.636;2023-04-01T01:42:07;10.00;75.30
76099;DHT22;64828;49.956;8.636;2023-04-01T01:42:28;10.00;75.30
76099;DHT22;64828;49.956;8.636;2023-04-01T01:42:50;10.00;75.30
76099;DHT22;64828;49.956;8.636;2023-04-01T01:43:12;10.00;75.30
76099;DHT22;64828;49.956;8.636;2023-04-01T01:43:38;10.00;75.40
76099;DHT22;64828;49.956;8.636;2023-04-01T01:43:58;10.00;75.40
76099;DHT22;64828;49.956;8.636;2023-04-01T01:44:17;10.00;75.30
76099;DHT22;64828;49.956;8.636;2023-04-01T01:44:35;10.10;75.40
76099;DHT22;64828;49.956;8.636;2023-04-01T01:44:54;10.00;75.60
76099;DHT22;64828;49.956;8.636;2023-04-01T01:45:16;10.00;75.70
76099;DHT22;64828;49.956;8.636;2023-04-01T01:45:38;10.00;75.70
76099;DHT22;64828;49.956;8.636;2023-04-01T01:46:03;10.00;75.60
76099;DHT22;64828;49.956;8.636;2023-04-01T01:46:24;10.00;75.60
76099;DHT22;64828;49.956;8.636;2023-04-01T01:46:44;10.00;75.80
76099;DHT22;64828;49.956;8.636;2023-04-01T01:47:01;10.00;75.70
76099;DHT22;64828;49.956;8.636;2023-04-01T01:47:17;10.00;75.70
76099;DHT22;64828;49.956;8.636;2023-04-01T01:47:37;10.00;75.60
76099;DHT22;64828;49.956;8.636;2023-04-01T01:47:55;10.00;75.70
76099;DHT22;64828;49.956;8.636;2023-04-01T01:48:11;10.00;75.60
76099;DHT22;64828;49.956;8.636;2023-04-01T01:48:28;10.00;75.70
76099;DHT22;64828;49.956;8.636;2023-04-01T01:48:46;10.00;75.70
76099;DHT22;64828;49.956;8.636;2023-04-01T01:49:03;10.00;75.70
76099;DHT22;64828;49.956;8.636;2023-04-01T01:49:23;10.00;75.90
76099;DHT22;64828;49.956;8.636;2023-04-01T01:49:41;10.00;76.00
76099;DHT22;64828;49.956;8.636;2023-04-01T01:49:59;10.00;75.70
76099;DHT22;64828;49.956;8.636;2023-04-01T01:50:17;10.00;75.90
76099;DHT22;64828;49.956;8.636;2023-04-01T01:50:35;10.00;75.80
76099;DHT22;64828;49.956;8.636;2023-04-01T01:50:52;10.00;75.70
76099;DHT22;64828;49.956;8.636;2023-04-01T01:51:08;10.00;75.60
76099;DHT22;64828;49.956;8.636;2023-04-01T01:51:26;10.00;75.60
76099;DHT22;64828;49.956;8.636;2023-04-01T01:51:43;10.00;75.70
76099;DHT22;64828;49.956;8.636;2023-04-01T01:51:58;10.00;75.90
76099;DHT22;64828;49.956;8.636;2023-04-01T01:52:16;10.00;75.60
76099;DHT22;64828;49.956;8.636;2023-04-01T01:52:33;10.00;75.50
76099;DHT22;64828;49.956;8.636;2023-04-01T01:52:48;10.00;75.70
76099;DHT22;64828;49.956;8.636;2023-04-01T01:53:07;10.00;75.70
76099;DHT22;64828;49.956;8.636;2023-04-01T01:53:25;10.00;75.60
76099;DHT22;64828;49.956;8.636;2023-04-01T01:53:41;10.00;75.80
76099;DHT22;64828;49.956;8.636;2023-04-01T01:53:56;10.00;75.90
76099;DHT22;64828;49.956;8.636;2023-04-01T01:54:14;10.00;75.90
76099;DHT22;64828;49.956;8.636;2023-04-01T01:54:31;9.90;75.60
76099;DHT22;64828;49.956;8.636;2023-04-01T01:54:55;10.00;75.40
76099;DHT22;64828;49.956;8.636;2023-04-01T01:55:27;10.00;75.50
76099;DHT22;64828;49.956;8.636;2023-04-01T01:55:47;10.00;75.60
76099;DHT22;64828;49.956;8.636;2023-04-01T01:56:04;10.00;75.80
76099;DHT22;64828;49.956;8.636;2023-04-01T01:56:22;10.00;75.70
76099;DHT22;64828;49.956;8.636;2023-04-01T01:56:45;10.00;75.70
76099;DHT22;64828;49.956;8.636;2023-04-01T01:57:06;10.00;75.50
76099;DHT22;64828;49.956;8.636;2023-04-01T01:57:33;10.00;75.40
76099;DHT22;64828;49.956;8.636;2023-04-01T01:57:55;10.00;75.40
76099;DHT22;64828;49.956;8.636;2023-04-01T01:58:22;10.00;75.50
76099;DHT22;64828;49.956;8.636;2023-04-01T01:59:03;10.00;75.70
76099;DHT22;64828;49.956;8.636;2023-04-01T01:59:24;10.00;75.60
76099;DHT22;64828;49.956;8.636;2023-04-01T01:59:42;10.00;75.70
76099;DHT22;64828;49.956;8.636;2023-04-01T02:00:07;10.00;75.80
76099;DHT22;64828;49.956;8.636;2023-04-01T02:00:29;10.00;76.00
76099;DHT22;64828;49.956;8.636;2023-04-01T02:00:57;9.90;75.90
76099;DHT22;64828;49.956;8.636;2023-04-01T02:01:29;9.90;75.80
76099;DHT22;64828;49.956;8.636;2023-04-01T02:01:51;10.00;75.80
76099;DHT22;64828;49.956;8.636;2023-04-01T02:02:11;10.00;75.70
76099;DHT22;64828;49.956;8.636;2023-04-01T02:02:29;10.00;75.50
76099;DHT22;64828;49.956;8.636;2023-04-01T02:02:48;10.00;75.70
76099;DHT22;64828;49.956;8.636;2023-04-01T02:03:05;10.00;75.50
76099;DHT22;64828;49.956;8.636;2023-04-01T02:03:23;10.00;75.70
76099;DHT22;64828;49.956;8.636;2023-04-01T02:03:42;10.00;75.80
76099;DHT22;64828;49.956;8.636;2023-04-01T02:04:00;10.00;75.60
76099;DHT22;64828;49.956;8.636;2023-04-01T02:04:17;10.00;75.50
76099;DHT22;64828;49.956;8.636;2023-04-01T02:04:36;9.90;75.80
76099;DHT22;64828;49.956;8.636;2023-04-01T02:04:54;10.00;75.60
76099;DHT22;64828;49.956;8.636;2023-04-01T02:05:11;10.00;75.60
76099;DHT22;64828;49.956;8.636;2023-04-01T02:05:32;10.00;75.70
76099;DHT22;64828;49.956;8.636;2023-04-01T02:05:51;10.00;75.70
76099;DHT22;64828;49.956;8.636;2023-04-01T02:06:10;10.00;75.40
76099;DHT22;64828;49.956;8.636;2023-04-01T02:06:31;10.00;75.50
76099;DHT22;64828;49.956;8.636;2023-04-01T02:07:00;10.00;75.60
76099;DHT22;64828;49.956;8.636;2023-04-01T02:07:30;10.00;75.60
76099;DHT22;64828;49.956;8.636;2023-04-01T02:07:54;10.00;75.70
76099;DHT22;64828;49.956;8.636;2023-04-01T02:08:21;10.00;75.60
76099;DHT22;64828;49.956;8.636;2023-04-01T02:08:49;10.00;75.30
76099;DHT22;64828;49.956;8.636;2023-04-01T02:09:10;10.00;75.20
76099;DHT22;64828;49.956;8.636;2023-04-01T02:09:27;10.00;75.20
76099;DHT22;64828;49.956;8.636;2023-04-01T02:09:44;10.00;75.20
76099;DHT22;64828;49.956;8.636;2023-04-01T02:10:00;10.00;75.30
76099;DHT22;64828;49.956;8.636;2023-04-01T02:10:17;10.00;75.30
76099;DHT22;64828;49.956;8.636;2023-04-01T02:10:37;10.00;75.40
76099;DHT22;64828;49.956;8.636;2023-04-01T02:11:08;10.00;75.40
76099;DHT22;64828;49.956;8.636;2023-04-01T02:12:09;10.00;75.80
76099;DHT22;64828;49.956;8.636;2023-04-01T02:12:29;10.00;75.80
76099;DHT22;64828;49.956;8.636;2023-04-01T02:12:46;10.00;75.70
76099;DHT22;64828;49.956;8.636;2023-04-01T02:13:13;10.00;75.60
76099;DHT22;64828;49.956;8.636;2023-04-01T02:13:42;10.00;75.70
76099;DHT22;64828;49.956;8.636;2023-04-01T02:14:06;9.90;76.00
76099;DHT22;64828;49.956;8.636;2023-04-01T02:14:52;10.00;76.00
76099;DHT22;64828;49.956;8.636;2023-04-01T02:15:13;10.00;75.60
76099;DHT22;64828;49.956;8.636;2023-04-01T02:15:34;10.00;75.90
76099;DHT22;64828;49.956;8.636;2023-04-01T02:15:59;10.00;76.10
76099;DHT22;64828;49.956;8.636;2023-04-01T02:16:27;10.00;75.70
76099;DHT22;64828;49.956;8.636;2023-04-01T02:16:58;9.90;75.80
76099;DHT22;64828;49.956;8.636;2023-04-01T02:17:19;10.00;75.60
76099;DHT22;64828;49.956;8.636;2023-04-01T02:17:40;10.00;75.50
76099;DHT22;64828;49.956;8.636;2023-04-01T02:17:59;9.90;75.70
76099;DHT22;64828;49.956;8.636;2023-04-01T02:18:15;10.00;75.70
76099;DHT22;64828;49.956;8.636;2023-04-01T02:18:35;9.90;75.90
76099;DHT22;64828;49.956;8.636;2023-04-01T02:18:54;9.90;75.90
76099;DHT22;64828;49.956;8.636;2023-04-01T02:19:13;9.90;76.00
76099;DHT22;64828;49.956;8.636;2023-04-01T02:19:50;9.90;76.10
76099;DHT22;64828;49.956;8.636;2023-04-01T02:20:09;9.90;76.10
76099;DHT22;64828;49.956;8.636;2023-04-01T02:20:30;9.90;76.10
76099;DHT22;64828;49.956;8.636;2023-04-01T02:20:46;9.90;76.30
76099;DHT22;64828;49.956;8.636;2023-04-01T02:21:05;9.90;76.30
76099;DHT22;64828;49.956;8.636;2023-04-01T02:21:24;9.90;76.10
76099;DHT22;64828;49.956;8.636;2023-04-01T02:21:45;9.90;76.10
76099;DHT22;64828;49.956;8.636;2023-04-01T02:22:03;9.90;76.00
76099;DHT22;64828;49.956;8.636;2023-04-01T02:22:24;9.90;76.00
76099;DHT22;64828;49.956;8.636;2023-04-01T02:22:52;9.90;76.30